sensor_id;sensor_type;location;lat;lon;timestamp;temperature;humidity
52159;DHT22;38145;53.182;6.284;2023-05-20T00:00:27;10.30;99.90
52159;DHT22;38145;53.182;6.284;2023-05-20T00:02:53;10.20;99.90
52159;DHT22;38145;53.182;6.284;2023-05-20T00:05:19;10.30;99.90
52159;DHT22;38145;53.182;6.284;2023-05-20T00:07:45;10.30;99.90
52159;DHT22;38145;53.182;6.284;2023-05-20T00:10:12;10.30;99.90
52159;DHT22;38145;53.182;6.284;2023-05-20T00:12:38;10.30;99.90
52159;DHT22;38145;53.182;6.284;2023-05-20T00:15:04;10.30;99.90
52159;DHT22;38145;53.182;6.284;2023-05-20T00:17:30;10.30;99.90
52159;DHT22;38145;53.182;6.284;2023-05-20T00:19:56;10.20;99.90
52159;DHT22;38145;53.182;6.284;2023-05-20T00:22:24;10.20;99.90
52159;DHT22;38145;53.182;6.284;2023-05-20T00:24:50;10.20;99.90
52159;DHT22;38145;53.182;6.284;2023-05-20T00:27:16;10.20;99.90
52159;DHT22;38145;53.182;6.284;2023-05-20T00:29:42;10.20;99.90
52159;DHT22;38145;53.182;6.284;2023-05-20T00:32:08;10.10;99.90
52159;DHT22;38145;53.182;6.284;2023-05-20T00:34:34;10.10;99.90
52159;DHT22;38145;53.182;6.284;2023-05-20T00:37:00;10.10;99.90
52159;DHT22;38145;53.182;6.284;2023-05-20T00:39:26;10.10;99.90
52159;DHT22;38145;53.182;6.284;2023-05-20T00:41:52;10.00;99.90
52159;DHT22;38145;53.182;6.284;2023-05-20T00:44:17;10.00;99.90
52159;DHT22;38145;53.182;6.284;2023-05-20T00:46:45;9.80;99.90
52159;DHT22;38145;53.182;6.284;2023-05-20T00:49:12;9.80;99.90
52159;DHT22;38145;53.182;6.284;2023-05-20T00:51:38;9.80;99.90
52159;DHT22;38145;53.182;6.284;2023-05-20T00:54:04;9.80;99.90
52159;DHT22;38145;53.182;6.284;2023-05-20T00:56:30;9.90;99.90
52159;DHT22;38145;53.182;6.284;2023-05-20T00:58:57;9.80;99.90
52159;DHT22;38145;53.182;6.284;2023-05-20T01:01:22;9.80;99.90
52159;DHT22;38145;53.182;6.284;2023-05-20T01:03:48;9.80;99.90
52159;DHT22;38145;53.182;6.284;2023-05-20T01:06:15;9.80;99.90
52159;DHT22;38145;53.182;6.284;2023-05-20T01:08:41;9.90;99.90
52159;DHT22;38145;53.182;6.284;2023-05-20T01:11:10;9.90;99.90
52159;DHT22;38145;53.182;6.284;2023-05-20T01:13:44;9.90;99.90
52159;DHT22;38145;53.182;6.284;2023-05-20T01:16:13;10.00;99.90
52159;DHT22;38145;53.182;6.284;2023-05-20T01:18:42;10.00;99.90
52159;DHT22;38145;53.182;6.284;2023-05-20T01:21:11;10.00;99.90
52159;DHT22;38145;53.182;6.284;2023-05-20T01:23:40;10.00;99.90
52159;DHT22;38145;53.182;6.284;2023-05-20T01:26:07;10.00;99.90
52159;DHT22;38145;53.182;6.284;2023-05-20T01:28:34;9.90;99.90
52159;DHT22;38145;53.182;6.284;2023-05-20T01:31:04;9.90;99.90
52159;DHT22;38145;53.182;6.284;2023-05-20T01:33:30;9.90;99.90
52159;DHT22;38145;53.182;6.284;2023-05-20T01:35:58;9.90;99.90
52159;DHT22;38145;53.182;6.284;2023-05-20T01:38:24;9.90;99.90
52159;DHT22;38145;53.182;6.284;2023-05-20T01:40:51;9.90;99.90
52159;DHT22;38145;53.182;6.284;2023-05-20T01:43:18;9.90;99.90
52159;DHT22;38145;53.182;6.284;2023-05-20T01:45:44;9.90;99.90
52159;DHT22;38145;53.182;6.284;2023-05-20T01:48:10;10.00;99.90
52159;DHT22;38145;53.182;6.284;2023-05-20T01:50:37;10.00;99.90
52159;DHT22;38145;53.182;6.284;2023-05-20T01:53:03;9.90;99.90
52159;DHT22;38145;53.182;6.284;2023-05-20T01:55:30;9.90;99.90
52159;DHT22;38145;53.182;6.284;2023-05-20T01:57:56;9.80;99.90
52159;DHT22;38145;53.182;6.284;2023-05-20T02:00:22;9.80;99.90
52159;DHT22;38145;53.182;6.284;2023-05-20T02:02:48;9.80;99.90
52159;DHT22;38145;53.182;6.284;2023-05-20T02:05:15;9.80;99.90
52159;DHT22;38145;53.182;6.284;2023-05-20T02:07:41;9.80;99.90
52159;DHT22;38145;53.182;6.284;2023-05-20T02:10:08;9.80;99.90
52159;DHT22;38145;53.182;6.284;2023-05-20T02:12:34;9.80;99.90
52159;DHT22;38145;53.182;6.284;2023-05-20T02:15:01;9.70;99.90
52159;DHT22;38145;53.182;6.284;2023-05-20T02:17:27;9.70;99.90
52159;DHT22;38145;53.182;6.284;2023-05-20T02:19:53;9.70;99.90
52159;DHT22;38145;53.182;6.284;2023-05-20T02:22:21;9.60;99.90
52159;DHT22;38145;53.182;6.284;2023-05-20T02:24:47;9.50;99.90
52159;DHT22;38145;53.182;6.284;2023-05-20T02:27:13;9.50;99.90
52159;DHT22;38145;53.182;6.284;2023-05-20T02:29:38;9.50;99.90
52159;DHT22;38145;53.182;6.284;2023-05-20T02:32:05;9.50;99.90
52159;DHT22;38145;53.182;6.284;2023-05-20T02:34:31;9.50;99.90
52159;DHT22;38145;53.182;6.284;2023-05-20T02:36:57;9.50;99.90
52159;DHT22;38145;53.182;6.284;2023-05-20T02:39:23;9.50;99.90
52159;DHT22;38145;53.182;6.284;2023-05-20T02:41:49;9.60;99.90
52159;DHT22;38145;53.182;6.284;2023-05-20T02:44:15;9.60;99.90
52159;DHT22;38145;53.182;6.284;2023-05-20T02:46:41;9.60;99.90
52159;DHT22;38145;53.182;6.284;2023-05-20T02:49:07;9.50;99.90
52159;DHT22;38145;53.182;6.284;2023-05-20T02:51:33;9.50;99.90
52159;DHT22;38145;53.182;6.284;2023-05-20T02:53:58;9.50;99.90
52159;DHT22;38145;53.182;6.284;2023-05-20T02:56:26;9.40;99.90
52159;DHT22;38145;53.182;6.284;2023-05-20T02:58:53;9.40;99.90
52159;DHT22;38145;53.182;6.284;2023-05-20T03:01:19;9.40;99.90
52159;DHT22;38145;53.182;6.284;2023-05-20T03:03:45;9.50;99.90
52159;DHT22;38145;53.182;6.284;2023-05-20T03:06:11;9.50;99.90
52159;DHT22;38145;53.182;6.284;2023-05-20T03:08:37;9.50;99.90
52159;DHT22;38145;53.182;6.284;2023-05-20T03:11:04;9.50;99.90
52159;DHT22;38145;53.182;6.284;2023-05-20T03:13:30;9.50;99.90
52159;DHT22;38145;53.182;6.284;2023-05-20T03:15:56;9.50;99.90
52159;DHT22;38145;53.182;6.284;2023-05-20T03:18:22;9.50;99.90
52159;DHT22;38145;53.182;6.284;2023-05-20T03:20:47;9.50;99.90
52159;DHT22;38145;53.182;6.284;2023-05-20T03:23:14;9.50;99.90
52159;DHT22;38145;53.182;6.284;2023-05-20T03:25:40;9.40;99.90
52159;DHT22;38145;53.182;6.284;2023-05-20T03:28:06;9.50;99.90
52159;DHT22;38145;53.182;6.284;2023-05-20T03:30:32;9.40;99.90
52159;DHT22;38145;53.182;6.284;2023-05-20T03:32:58;9.40;99.90
52159;DHT22;38145;53.182;6.284;2023-05-20T03:35:25;9.40;99.90
52159;DHT22;38145;53.182;6.284;2023-05-20T03:37:51;9.40;99.90
52159;DHT22;38145;53.182;6.284;2023-05-20T03:40:18;9.40;99.90
52159;DHT22;38145;53.182;6.284;2023-05-20T03:42:45;9.50;99.90
52159;DHT22;38145;53.182;6.284;2023-05-20T03:45:11;9.50;99.90
52159;DHT22;38145;53.182;6.284;2023-05-20T03:47:37;9.50;99.90
52159;DHT22;38145;53.182;6.284;2023-05-20T03:50:03;9.60;99.90
52159;DHT22;38145;53.182;6.284;2023-05-20T03:52:29;9.60;99.90
52159;DHT22;38145;53.182;6.284;2023-05-20T03:54:55;9.60;99.90
52159;DHT22;38145;53.182;6.284;2023-05-20T03:57:21;9.60;99.90
52159;DHT22;38145;53.182;6.284;2023-05-20T03:59:48;9.60;99.90
52159;DHT22;38145;53.182;6.284;2023-05-20T04:02:16;9.60;99.90
52159;DHT22;38145;53.182;6.284;2023-05-20T04:04:42;9.60;99.90
52159;DHT22;38145;53.182;6.284;2023-05-20T04:07:09;9.70;99.90
52159;DHT22;38145;53.182;6.284;2023-05-20T04:09:37;9.60;99.90
52159;DHT22;38145;53.182;6.284;2023-05-20T04:12:04;9.70;99.90
52159;DHT22;38145;53.182;6.284;2023-05-20T04:14:30;9.70;99.90
52159;DHT22;38145;53.182;6.284;2023-05-20T04:16:56;9.60;99.90
52159;DHT22;38145;53.182;6.284;2023-05-20T04:19:22;9.70;99.90
52159;DHT22;38145;53.182;6.284;2023-05-20T04:21:48;9.70;99.90
52159;DHT22;38145;53.182;6.284;2023-05-20T04:24:14;9.70;99.90
52159;DHT22;38145;53.182;6.284;2023-05-20T04:26:40;9.70;99.90
52159;DHT22;38145;53.182;6.284;2023-05-20T04:29:06;9.70;99.90
52159;DHT22;38145;53.182;6.284;2023-05-20T04:31:33;9.70;99.90
52159;DHT22;38145;53.182;6.284;2023-05-20T04:33:59;9.70;99.90
52159;DHT22;38145;53.182;6.284;2023-05-20T04:36:26;9.70;99.90
52159;DHT22;38145;53.182;6.284;2023-05-20T04:38:54;9.80;99.90
52159;DHT22;38145;53.182;6.284;2023-05-20T04:41:20;9.80;99.90
52159;DHT22;38145;53.182;6.284;2023-05-20T04:43:46;9.80;99.90
52159;DHT22;38145;53.182;6.284;2023-05-20T04:46:14;9.80;99.90
52159;DHT22;38145;53.182;6.284;2023-05-20T04:48:41;9.80;99.90
52159;DHT22;38145;53.182;6.284;2023-05-20T04:51:09;9.80;99.90
52159;DHT22;38145;53.182;6.284;2023-05-20T04:53:35;9.90;99.90
52159;DHT22;38145;53.182;6.284;2023-05-20T04:56:01;9.90;99.90
52159;DHT22;38145;53.182;6.284;2023-05-20T04:58:28;10.00;99.90
52159;DHT22;38145;53.182;6.284;2023-05-20T05:00:54;10.00;99.90
52159;DHT22;38145;53.182;6.284;2023-05-20T05:03:21;10.10;99.90
52159;DHT22;38145;53.182;6.284;2023-05-20T05:05:47;10.10;99.90
52159;DHT22;38145;53.182;6.284;2023-05-20T05:08:13;10.20;99.90
52159;DHT22;38145;53.182;6.284;2023-05-20T05:10:39;10.30;99.90
52159;DHT22;38145;53.182;6.284;2023-05-20T05:13:05;10.30;99.90
52159;DHT22;38145;53.182;6.284;2023-05-20T05:15:31;10.40;99.90
52159;DHT22;38145;53.182;6.284;2023-05-20T05:17:57;10.50;99.90
52159;DHT22;38145;53.182;6.284;2023-05-20T05:20:23;10.60;99.90
52159;DHT22;38145;53.182;6.284;2023-05-20T05:22:49;10.60;99.90
52159;DHT22;38145;53.182;6.284;2023-05-20T05:25:15;10.70;99.90
52159;DHT22;38145;53.182;6.284;2023-05-20T05:27:42;10.70;99.90
52159;DHT22;38145;53.182;6.284;2023-05-20T05:30:09;10.70;99.90
52159;DHT22;38145;53.182;6.284;2023-05-20T05:32:36;10.80;99.90
52159;DHT22;38145;53.182;6.284;2023-05-20T05:35:03;10.80;99.90
52159;DHT22;38145;53.182;6.284;2023-05-20T05:37:29;10.90;99.90
52159;DHT22;38145;53.182;6.284;2023-05-20T05:39:55;10.90;99.90
52159;DHT22;38145;53.182;6.284;2023-05-20T05:42:21;10.90;99.90
52159;DHT22;38145;53.182;6.284;2023-05-20T05:44:47;10.90;99.90
52159;DHT22;38145;53.182;6.284;2023-05-20T05:47:13;10.90;99.90
52159;DHT22;38145;53.182;6.284;2023-05-20T05:49:39;10.90;99.90
52159;DHT22;38145;53.182;6.284;2023-05-20T05:52:05;10.90;99.90
52159;DHT22;38145;53.182;6.284;2023-05-20T05:54:31;11.00;99.90
52159;DHT22;38145;53.182;6.284;2023-05-20T05:56:57;11.00;99.90
52159;DHT22;38145;53.182;6.284;2023-05-20T05:59:23;11.10;99.90
52159;DHT22;38145;53.182;6.284;2023-05-20T06:01:51;11.20;99.90
52159;DHT22;38145;53.182;6.284;2023-05-20T06:04:17;11.30;99.90
52159;DHT22;38145;53.182;6.284;2023-05-20T06:06:43;11.40;99.90
52159;DHT22;38145;53.182;6.284;2023-05-20T06:09:09;11.50;99.90
52159;DHT22;38145;53.182;6.284;2023-05-20T06:11:35;11.60;99.90
52159;DHT22;38145;53.182;6.284;2023-05-20T06:14:01;11.60;99.90
52159;DHT22;38145;53.182;6.284;2023-05-20T06:16:27;11.70;99.90
52159;DHT22;38145;53.182;6.284;2023-05-20T06:18:53;11.80;99.90
52159;DHT22;38145;53.182;6.284;2023-05-20T06:21:21;11.80;99.90
52159;DHT22;38145;53.182;6.284;2023-05-20T06:23:48;11.90;99.90
52159;DHT22;38145;53.182;6.284;2023-05-20T06:26:14;12.00;99.90
52159;DHT22;38145;53.182;6.284;2023-05-20T06:28:40;12.10;99.90
52159;DHT22;38145;53.182;6.284;2023-05-20T06:31:07;12.10;99.90
52159;DHT22;38145;53.182;6.284;2023-05-20T06:33:33;12.10;99.90
52159;DHT22;38145;53.182;6.284;2023-05-20T06:35:59;12.10;99.90
52159;DHT22;38145;53.182;6.284;2023-05-20T06:38:26;12.10;99.90
52159;DHT22;38145;53.182;6.284;2023-05-20T06:40:52;12.20;99.90
52159;DHT22;38145;53.182;6.284;2023-05-20T06:43:18;12.20;99.90
52159;DHT22;38145;53.182;6.284;2023-05-20T06:45:44;12.30;99.90
52159;DHT22;38145;53.182;6.284;2023-05-20T06:48:10;12.30;99.90
52159;DHT22;38145;53.182;6.284;2023-05-20T06:50:37;12.40;99.90
52159;DHT22;38145;53.182;6.284;2023-05-20T06:53:03;12.40;99.90
52159;DHT22;38145;53.182;6.284;2023-05-20T06:55:29;12.50;99.90
52159;DHT22;38145;53.182;6.284;2023-05-20T06:57:55;12.50;99.90
52159;DHT22;38145;53.182;6.284;2023-05-20T07:00:21;12.60;99.90
52159;DHT22;38145;53.182;6.284;2023-05-20T07:02:47;12.70;99.90
52159;DHT22;38145;53.182;6.284;2023-05-20T07:05:13;12.80;99.90
52159;DHT22;38145;53.182;6.284;2023-05-20T07:07:39;13.00;99.90
52159;DHT22;38145;53.182;6.284;2023-05-20T07:10:05;13.20;99.90
52159;DHT22;38145;53.182;6.284;2023-05-20T07:12:32;13.40;99.90
52159;DHT22;38145;53.182;6.284;2023-05-20T07:14:58;13.50;99.90
52159;DHT22;38145;53.182;6.284;2023-05-20T07:17:24;13.80;99.90
52159;DHT22;38145;53.182;6.284;2023-05-20T07:19:51;14.10;99.90
52159;DHT22;38145;53.182;6.284;2023-05-20T07:22:17;14.40;99.90
52159;DHT22;38145;53.182;6.284;2023-05-20T07:24:43;14.60;99.90
52159;DHT22;38145;53.182;6.284;2023-05-20T07:27:09;15.00;99.90
52159;DHT22;38145;53.182;6.284;2023-05-20T07:29:35;15.40;99.90
52159;DHT22;38145;53.182;6.284;2023-05-20T07:32:02;15.60;99.90
52159;DHT22;38145;53.182;6.284;2023-05-20T07:34:30;15.80;99.90
52159;DHT22;38145;53.182;6.284;2023-05-20T07:36:56;16.20;99.90
52159;DHT22;38145;53.182;6.284;2023-05-20T07:39:23;16.30;99.90
52159;DHT22;38145;53.182;6.284;2023-05-20T07:41:49;16.60;99.90
52159;DHT22;38145;53.182;6.284;2023-05-20T07:44:15;16.70;99.90
52159;DHT22;38145;53.182;6.284;2023-05-20T07:46:43;16.80;99.90
52159;DHT22;38145;53.182;6.284;2023-05-20T07:49:10;17.00;99.90
52159;DHT22;38145;53.182;6.284;2023-05-20T07:51:36;17.10;99.90
52159;DHT22;38145;53.182;6.284;2023-05-20T07:54:02;17.20;99.90
52159;DHT22;38145;53.182;6.284;2023-05-20T07:56:28;17.50;99.90
52159;DHT22;38145;53.182;6.284;2023-05-20T07:58:57;17.70;99.90
52159;DHT22;38145;53.182;6.284;2023-05-20T08:01:23;17.90;99.90
52159;DHT22;38145;53.182;6.284;2023-05-20T08:03:49;18.00;99.90
52159;DHT22;38145;53.182;6.284;2023-05-20T08:06:15;18.10;99.90
52159;DHT22;38145;53.182;6.284;2023-05-20T08:08:42;18.40;99.90
52159;DHT22;38145;53.182;6.284;2023-05-20T08:11:08;18.60;99.90
52159;DHT22;38145;53.182;6.284;2023-05-20T08:13:35;18.80;99.90
52159;DHT22;38145;53.182;6.284;2023-05-20T08:16:01;18.90;99.90
52159;DHT22;38145;53.182;6.284;2023-05-20T08:18:34;18.80;99.90
52159;DHT22;38145;53.182;6.284;2023-05-20T08:21:03;18.80;99.90
52159;DHT22;38145;53.182;6.284;2023-05-20T08:23:29;18.80;99.90
52159;DHT22;38145;53.182;6.284;2023-05-20T08:25:55;18.80;99.90
52159;DHT22;38145;53.182;6.284;2023-05-20T08:28:22;18.80;99.90
52159;DHT22;38145;53.182;6.284;2023-05-20T08:30:47;18.60;99.90
52159;DHT22;38145;53.182;6.284;2023-05-20T08:33:14;18.70;99.90
52159;DHT22;38145;53.182;6.284;2023-05-20T08:35:40;18.90;99.90
52159;DHT22;38145;53.182;6.284;2023-05-20T08:38:06;19.20;99.90
52159;DHT22;38145;53.182;6.284;2023-05-20T08:40:35;19.40;99.90
52159;DHT22;38145;53.182;6.284;2023-05-20T08:43:01;19.70;99.90
52159;DHT22;38145;53.182;6.284;2023-05-20T08:45:31;19.70;99.90
52159;DHT22;38145;53.182;6.284;2023-05-20T08:47:57;19.60;99.90
52159;DHT22;38145;53.182;6.284;2023-05-20T08:50:23;19.70;99.90
52159;DHT22;38145;53.182;6.284;2023-05-20T08:52:49;19.70;99.90
52159;DHT22;38145;53.182;6.284;2023-05-20T08:55:23;19.60;99.90
52159;DHT22;38145;53.182;6.284;2023-05-20T08:57:53;19.70;99.90
52159;DHT22;38145;53.182;6.284;2023-05-20T09:00:19;19.80;99.90
52159;DHT22;38145;53.182;6.284;2023-05-20T09:02:46;20.00;99.90
52159;DHT22;38145;53.182;6.284;2023-05-20T09:05:12;19.80;99.90
52159;DHT22;38145;53.182;6.284;2023-05-20T09:07:39;20.00;99.90
52159;DHT22;38145;53.182;6.284;2023-05-20T09:10:07;20.10;99.90
52159;DHT22;38145;53.182;6.284;2023-05-20T09:12:34;20.40;99.90
52159;DHT22;38145;53.182;6.284;2023-05-20T09:15:00;20.30;99.90
52159;DHT22;38145;53.182;6.284;2023-05-20T09:17:26;20.30;99.90
52159;DHT22;38145;53.182;6.284;2023-05-20T09:19:53;20.20;99.90
52159;DHT22;38145;53.182;6.284;2023-05-20T09:22:22;20.20;99.90
52159;DHT22;38145;53.182;6.284;2023-05-20T09:24:50;20.10;99.90
52159;DHT22;38145;53.182;6.284;2023-05-20T09:27:16;20.20;99.90
52159;DHT22;38145;53.182;6.284;2023-05-20T09:29:42;19.90;99.90
52159;DHT22;38145;53.182;6.284;2023-05-20T09:32:09;19.90;99.90
52159;DHT22;38145;53.182;6.284;2023-05-20T09:34:36;19.90;99.90
52159;DHT22;38145;53.182;6.284;2023-05-20T09:37:02;19.90;99.90
52159;DHT22;38145;53.182;6.284;2023-05-20T09:39:32;19.80;99.90
52159;DHT22;38145;53.182;6.284;2023-05-20T09:42:14;19.90;99.90
52159;DHT22;38145;53.182;6.284;2023-05-20T09:44:41;19.80;99.90
52159;DHT22;38145;53.182;6.284;2023-05-20T09:47:09;20.00;99.90
52159;DHT22;38145;53.182;6.284;2023-05-20T09:49:37;20.10;99.90
52159;DHT22;38145;53.182;6.284;2023-05-20T09:52:05;20.20;99.90
52159;DHT22;38145;53.182;6.284;2023-05-20T09:54:32;20.30;99.90
52159;DHT22;38145;53.182;6.284;2023-05-20T09:57:00;20.50;99.90
52159;DHT22;38145;53.182;6.284;2023-05-20T09:59:26;20.60;99.90
52159;DHT22;38145;53.182;6.284;2023-05-20T10:01:54;20.60;99.90
52159;DHT22;38145;53.182;6.284;2023-05-20T10:04:21;20.70;99.90
52159;DHT22;38145;53.182;6.284;2023-05-20T10:07:06;20.50;99.90
52159;DHT22;38145;53.182;6.284;2023-05-20T10:12:42;20.40;99.90
52159;DHT22;38145;53.182;6.284;2023-05-20T10:15:41;20.50;99.90
52159;DHT22;38145;53.182;6.284;2023-05-20T10:18:12;20.40;99.90
52159;DHT22;38145;53.182;6.284;2023-05-20T10:20:49;20.60;99.90
52159;DHT22;38145;53.182;6.284;2023-05-20T10:23:21;20.70;99.90
52159;DHT22;38145;53.182;6.284;2023-05-20T10:25:50;20.80;99.90
52159;DHT22;38145;53.182;6.284;2023-05-20T10:28:29;20.70;99.90
52159;DHT22;38145;53.182;6.284;2023-05-20T10:30:55;20.90;99.90
52159;DHT22;38145;53.182;6.284;2023-05-20T10:33:21;21.00;99.90
52159;DHT22;38145;53.182;6.284;2023-05-20T10:35:57;20.90;99.90
52159;DHT22;38145;53.182;6.284;2023-05-20T10:38:23;20.80;99.90
52159;DHT22;38145;53.182;6.284;2023-05-20T10:40:50;20.40;99.90
52159;DHT22;38145;53.182;6.284;2023-05-20T10:43:25;20.50;99.90
52159;DHT22;38145;53.182;6.284;2023-05-20T10:45:52;20.20;99.90
52159;DHT22;38145;53.182;6.284;2023-05-20T10:48:26;20.10;99.90
52159;DHT22;38145;53.182;6.284;2023-05-20T10:50:54;20.00;99.90
52159;DHT22;38145;53.182;6.284;2023-05-20T10:53:23;20.10;99.90
52159;DHT22;38145;53.182;6.284;2023-05-20T10:55:50;20.00;99.90
52159;DHT22;38145;53.182;6.284;2023-05-20T10:58:17;20.10;99.90
52159;DHT22;38145;53.182;6.284;2023-05-20T11:00:44;20.00;99.90
52159;DHT22;38145;53.182;6.284;2023-05-20T11:03:10;19.60;99.90
52159;DHT22;38145;53.182;6.284;2023-05-20T11:05:39;19.80;99.90
52159;DHT22;38145;53.182;6.284;2023-05-20T11:08:06;19.50;99.90
52159;DHT22;38145;53.182;6.284;2023-05-20T11:10:33;19.40;99.90
52159;DHT22;38145;53.182;6.284;2023-05-20T11:13:01;19.40;99.90
52159;DHT22;38145;53.182;6.284;2023-05-20T11:15:27;19.20;99.90
52159;DHT22;38145;53.182;6.284;2023-05-20T11:17:56;19.20;99.90
52159;DHT22;38145;53.182;6.284;2023-05-20T11:20:23;19.10;99.90
52159;DHT22;38145;53.182;6.284;2023-05-20T11:22:50;19.00;99.90
52159;DHT22;38145;53.182;6.284;2023-05-20T11:25:17;19.00;99.90
52159;DHT22;38145;53.182;6.284;2023-05-20T11:27:44;18.60;99.90
52159;DHT22;38145;53.182;6.284;2023-05-20T11:30:12;18.80;99.90
52159;DHT22;38145;53.182;6.284;2023-05-20T11:32:43;18.90;99.90
52159;DHT22;38145;53.182;6.284;2023-05-20T11:35:23;18.90;99.90
52159;DHT22;38145;53.182;6.284;2023-05-20T11:37:54;19.20;99.90
52159;DHT22;38145;53.182;6.284;2023-05-20T11:40:23;19.30;99.90
52159;DHT22;38145;53.182;6.284;2023-05-20T11:42:53;19.20;99.90
52159;DHT22;38145;53.182;6.284;2023-05-20T11:45:19;19.00;99.90
52159;DHT22;38145;53.182;6.284;2023-05-20T11:47:45;18.80;99.90
52159;DHT22;38145;53.182;6.284;2023-05-20T11:50:16;18.70;99.90
52159;DHT22;38145;53.182;6.284;2023-05-20T11:52:43;18.80;99.90
52159;DHT22;38145;53.182;6.284;2023-05-20T11:55:10;19.00;99.90
52159;DHT22;38145;53.182;6.284;2023-05-20T11:57:37;19.20;99.90
52159;DHT22;38145;53.182;6.284;2023-05-20T12:00:03;19.50;99.90
52159;DHT22;38145;53.182;6.284;2023-05-20T12:02:31;19.60;99.90
52159;DHT22;38145;53.182;6.284;2023-05-20T12:04:57;19.70;99.90
52159;DHT22;38145;53.182;6.284;2023-05-20T12:07:23;19.70;99.90
52159;DHT22;38145;53.182;6.284;2023-05-20T12:09:51;19.70;99.90
52159;DHT22;38145;53.182;6.284;2023-05-20T12:12:17;19.80;99.90
52159;DHT22;38145;53.182;6.284;2023-05-20T12:14:44;19.70;99.90
52159;DHT22;38145;53.182;6.284;2023-05-20T12:17:10;19.70;99.90
52159;DHT22;38145;53.182;6.284;2023-05-20T12:19:36;19.80;99.90
52159;DHT22;38145;53.182;6.284;2023-05-20T12:22:02;19.70;99.90
52159;DHT22;38145;53.182;6.284;2023-05-20T12:24:28;19.50;99.90
52159;DHT22;38145;53.182;6.284;2023-05-20T12:26:54;19.40;99.90
52159;DHT22;38145;53.182;6.284;2023-05-20T12:29:20;19.70;99.90
52159;DHT22;38145;53.182;6.284;2023-05-20T12:31:46;19.80;99.90
52159;DHT22;38145;53.182;6.284;2023-05-20T12:34:12;20.10;99.90
52159;DHT22;38145;53.182;6.284;2023-05-20T12:36:38;20.00;99.90
52159;DHT22;38145;53.182;6.284;2023-05-20T12:39:04;20.00;99.90
52159;DHT22;38145;53.182;6.284;2023-05-20T12:41:30;20.00;99.90
52159;DHT22;38145;53.182;6.284;2023-05-20T12:43:56;19.90;99.90
52159;DHT22;38145;53.182;6.284;2023-05-20T12:46:22;20.00;99.90
52159;DHT22;38145;53.182;6.284;2023-05-20T12:48:49;20.00;99.90
52159;DHT22;38145;53.182;6.284;2023-05-20T12:51:15;20.10;99.90
52159;DHT22;38145;53.182;6.284;2023-05-20T12:53:41;19.80;99.90
52159;DHT22;38145;53.182;6.284;2023-05-20T12:56:07;19.60;99.90
52159;DHT22;38145;53.182;6.284;2023-05-20T12:58:33;19.60;99.90
52159;DHT22;38145;53.182;6.284;2023-05-20T13:00:59;19.70;99.90
52159;DHT22;38145;53.182;6.284;2023-05-20T13:03:25;19.80;99.90
52159;DHT22;38145;53.182;6.284;2023-05-20T13:05:51;19.40;99.90
52159;DHT22;38145;53.182;6.284;2023-05-20T13:08:17;19.00;99.90
52159;DHT22;38145;53.182;6.284;2023-05-20T13:10:43;19.10;99.90
52159;DHT22;38145;53.182;6.284;2023-05-20T13:13:09;19.50;99.90
52159;DHT22;38145;53.182;6.284;2023-05-20T13:15:35;19.60;99.90
52159;DHT22;38145;53.182;6.284;2023-05-20T13:18:02;19.60;99.90
52159;DHT22;38145;53.182;6.284;2023-05-20T13:20:28;19.50;99.90
52159;DHT22;38145;53.182;6.284;2023-05-20T13:22:54;19.40;99.90
52159;DHT22;38145;53.182;6.284;2023-05-20T13:25:20;19.40;99.90
52159;DHT22;38145;53.182;6.284;2023-05-20T13:27:46;19.40;99.90
52159;DHT22;38145;53.182;6.284;2023-05-20T13:30:12;19.40;99.90
52159;DHT22;38145;53.182;6.284;2023-05-20T13:32:38;19.40;99.90
52159;DHT22;38145;53.182;6.284;2023-05-20T13:35:04;19.10;99.90
52159;DHT22;38145;53.182;6.284;2023-05-20T13:37:30;19.20;99.90
52159;DHT22;38145;53.182;6.284;2023-05-20T13:39:56;19.30;99.90
52159;DHT22;38145;53.182;6.284;2023-05-20T13:42:23;19.30;99.90
52159;DHT22;38145;53.182;6.284;2023-05-20T13:44:51;19.30;99.90
52159;DHT22;38145;53.182;6.284;2023-05-20T13:47:18;19.30;99.90
52159;DHT22;38145;53.182;6.284;2023-05-20T13:49:44;19.20;99.90
52159;DHT22;38145;53.182;6.284;2023-05-20T13:52:10;19.20;99.90
52159;DHT22;38145;53.182;6.284;2023-05-20T13:54:37;19.10;99.90
52159;DHT22;38145;53.182;6.284;2023-05-20T13:57:03;19.30;99.90
52159;DHT22;38145;53.182;6.284;2023-05-20T13:59:32;19.50;99.90
52159;DHT22;38145;53.182;6.284;2023-05-20T14:01:59;19.50;99.90
52159;DHT22;38145;53.182;6.284;2023-05-20T14:04:25;19.50;99.90
52159;DHT22;38145;53.182;6.284;2023-05-20T14:06:52;19.60;99.90
52159;DHT22;38145;53.182;6.284;2023-05-20T14:09:17;19.50;99.90
52159;DHT22;38145;53.182;6.284;2023-05-20T14:11:43;19.60;99.90
52159;DHT22;38145;53.182;6.284;2023-05-20T14:14:09;19.80;99.90
52159;DHT22;38145;53.182;6.284;2023-05-20T14:16:35;20.00;99.90
52159;DHT22;38145;53.182;6.284;2023-05-20T14:19:01;19.90;99.90
52159;DHT22;38145;53.182;6.284;2023-05-20T14:21:27;19.30;99.90
52159;DHT22;38145;53.182;6.284;2023-05-20T14:23:53;18.90;99.90
52159;DHT22;38145;53.182;6.284;2023-05-20T14:26:19;18.60;99.90
52159;DHT22;38145;53.182;6.284;2023-05-20T14:28:46;18.70;99.90
52159;DHT22;38145;53.182;6.284;2023-05-20T14:31:12;18.90;99.90
52159;DHT22;38145;53.182;6.284;2023-05-20T14:33:38;19.10;99.90
52159;DHT22;38145;53.182;6.284;2023-05-20T14:36:04;19.30;99.90
52159;DHT22;38145;53.182;6.284;2023-05-20T14:38:30;19.30;99.90
52159;DHT22;38145;53.182;6.284;2023-05-20T14:40:56;19.10;99.90
52159;DHT22;38145;53.182;6.284;2023-05-20T14:43:22;19.10;99.90
52159;DHT22;38145;53.182;6.284;2023-05-20T14:45:48;19.10;99.90
52159;DHT22;38145;53.182;6.284;2023-05-20T14:48:14;19.00;99.90
52159;DHT22;38145;53.182;6.284;2023-05-20T14:50:40;18.90;99.90
52159;DHT22;38145;53.182;6.284;2023-05-20T14:53:06;19.00;99.90
52159;DHT22;38145;53.182;6.284;2023-05-20T14:55:32;19.10;99.90
52159;DHT22;38145;53.182;6.284;2023-05-20T14:57:58;19.20;99.90
52159;DHT22;38145;53.182;6.284;2023-05-20T15:00:24;19.10;99.90
52159;DHT22;38145;53.182;6.284;2023-05-20T15:02:50;18.80;99.90
52159;DHT22;38145;53.182;6.284;2023-05-20T15:05:15;18.60;99.90
52159;DHT22;38145;53.182;6.284;2023-05-20T15:07:42;18.80;99.90
52159;DHT22;38145;53.182;6.284;2023-05-20T15:10:08;19.00;99.90
52159;DHT22;38145;53.182;6.284;2023-05-20T15:12:34;19.20;99.90
52159;DHT22;38145;53.182;6.284;2023-05-20T15:15:00;19.20;99.90
52159;DHT22;38145;53.182;6.284;2023-05-20T15:17:26;19.00;99.90
52159;DHT22;38145;53.182;6.284;2023-05-20T15:19:52;18.80;99.90
52159;DHT22;38145;53.182;6.284;2023-05-20T15:22:18;18.50;99.90
52159;DHT22;38145;53.182;6.284;2023-05-20T15:24:44;18.30;99.90
52159;DHT22;38145;53.182;6.284;2023-05-20T15:27:10;18.30;99.90
52159;DHT22;38145;53.182;6.284;2023-05-20T15:29:36;18.40;99.90
52159;DHT22;38145;53.182;6.284;2023-05-20T15:32:02;18.70;99.90
52159;DHT22;38145;53.182;6.284;2023-05-20T15:34:29;18.80;99.90